David F Stone — WCZ6032 — position and weather

sailwx.info

Track history (hours):
 
Tides and Currents Weather Stations Pressure Air Temp Water Temp Dewpoint Dewpoint Depression Visibility Wind Speed Wind Dir Waves Ship Positions

David F Stone

Owner: Blessey Enterprises, Inc., HARAHAN, LA. More information available from US FCC via Universal Licensing System and Coast Guard Vessel Documentation Center.

Last reported at 2017-Oct-14 23:56 UTC. Time now 2017-Oct-22 17:17 UTC.
Position N 29°32' W 094°54'.

Length 20 m.

Type: Ship. MMSI: 366935420.

Date/timePositionNaut miles runAvg speedWind from/ knotsBaromVisibWave heightAir tempDewpointWater temp
2017-Oct-14 23:56N 29°32' W 094°54'3 7.8
2017-Oct-14 23:30N 29°35' W 094°56'4 7.7
2017-Oct-14 23:00N 29°38' W 094°58'4 8.0
2017-Oct-14 22:30N 29°42' W 094°60'3 6.8
2017-Oct-14 22:00N 29°44' W 095°03'2 0.1
2017-Oct-14 05:44N 29°46' W 095°04'2 7.5
2017-Oct-14 05:30N 29°44' W 095°03'3 6.4
2017-Oct-14 05:00N 29°42' W 095°00'3 6.9
2017-Oct-14 04:30N 29°39' W 094°58'3 5.0
2017-Oct-14 04:00N 29°37' W 094°59'2 4.6
2017-Oct-14 03:30N 29°37' W 095°01'0 0.0
2017-Oct-14 03:00N 29°37' W 095°01'0 0.0
2017-Oct-14 02:30N 29°37' W 095°01'0 0.0
2017-Oct-14 02:00N 29°37' W 095°01'0 0.0
2017-Oct-14 01:28N 29°37' W 095°01'0 0.0
2017-Oct-14 00:52N 29°37' W 095°01'0 0.0
2017-Oct-14 00:30N 29°37' W 095°01'0 0.0
2017-Oct-13 23:56N 29°37' W 095°01'0 0.0
2017-Oct-13 23:28N 29°37' W 095°01'0 0.0
2017-Oct-13 23:00N 29°37' W 095°01'0 0.0
2017-Oct-13 22:30N 29°37' W 095°01'0 0.0
2017-Oct-13 22:00N 29°37' W 095°01'0 0.0
2017-Oct-13 21:30N 29°37' W 095°01'0 0.0
2017-Oct-13 21:00N 29°37' W 095°01'0 0.0
2017-Oct-13 20:30N 29°37' W 095°01'0 0.7
2017-Oct-13 20:00N 29°36' W 095°01'0 0.0
2017-Oct-13 19:30N 29°36' W 095°01'0 0.0
2017-Oct-13 19:00N 29°36' W 095°01'0 0.0
2017-Oct-13 18:30N 29°36' W 095°01'0 0.0
2017-Oct-13 18:00N 29°36' W 095°01'0 0.0
2017-Oct-13 17:30N 29°36' W 095°01'0 0.0
2017-Oct-13 17:00N 29°36' W 095°01'0 0.0
2017-Oct-13 16:30N 29°36' W 095°01'0 0.0
2017-Oct-13 16:00N 29°36' W 095°01'0 0.0
2017-Oct-13 15:30N 29°36' W 095°01'0 0.0
2017-Oct-13 15:00N 29°36' W 095°01'0 0.0
2017-Oct-13 14:29N 29°36' W 095°01'0 0.0
2017-Oct-13 14:00N 29°36' W 095°01'0 0.0
2017-Oct-13 13:30N 29°36' W 095°01'0 0.0
2017-Oct-13 13:00N 29°36' W 095°01'0 0.0
2017-Oct-13 12:30N 29°36' W 095°01'0 0.0
2017-Oct-13 12:00N 29°36' W 095°01'0 0.0
2017-Oct-13 11:30N 29°36' W 095°01'0 0.0
2017-Oct-13 11:00N 29°36' W 095°01'0 0.0
2017-Oct-13 10:30N 29°36' W 095°01'0 0.0
2017-Oct-13 10:00N 29°36' W 095°01'0 0.0
2017-Oct-13 09:30N 29°36' W 095°01'0 0.0
2017-Oct-13 09:00N 29°36' W 095°01'0 0.0
2017-Oct-13 08:30N 29°36' W 095°01'0 0.0
2017-Oct-13 08:00N 29°36' W 095°01'0 0.0
2017-Oct-13 07:30N 29°36' W 095°01'0 0.0
2017-Oct-13 07:00N 29°36' W 095°01'0 0.0
2017-Oct-13 06:30N 29°36' W 095°01'0 0.0
2017-Oct-13 06:00N 29°36' W 095°01'0 0.0
2017-Oct-13 05:30N 29°36' W 095°01'0 0.0
2017-Oct-13 05:00N 29°36' W 095°01'0 0.0
2017-Oct-13 04:30N 29°36' W 095°01'0 0.0
2017-Oct-13 04:00N 29°36' W 095°01'0 0.0
2017-Oct-13 03:30N 29°36' W 095°01'0 0.0
2017-Oct-13 03:00N 29°36' W 095°01'0 0.0
2017-Oct-13 02:30N 29°36' W 095°01'0 0.0
2017-Oct-13 02:00N 29°36' W 095°01'0 0.0
2017-Oct-13 01:30N 29°36' W 095°01'0 0.0
2017-Oct-13 01:00N 29°36' W 095°01'0 0.0
2017-Oct-13 00:30N 29°36' W 095°01'0 0.0
2017-Oct-13 00:00N 29°36' W 095°01'0 0.0
2017-Oct-12 23:30N 29°36' W 095°01'0 0.0
2017-Oct-12 23:00N 29°36' W 095°01'0 0.0
2017-Oct-12 22:30N 29°36' W 095°01'0 0.0
2017-Oct-12 22:00N 29°36' W 095°01'0 0.7
2017-Oct-12 21:30N 29°37' W 095°01'2 3.8
2017-Oct-12 21:00N 29°37' W 094°59'2 4.3
2017-Oct-12 20:30N 29°39' W 094°58'4 7.5
2017-Oct-12 20:00N 29°42' W 095°00'3 5.3
2017-Oct-12 19:28N 29°44' W 095°03'4 0.3
2017-Oct-12 04:39N 29°47' W 095°05'0 0.2
2017-Oct-12 04:28N 29°47' W 095°05'0 0.2
2017-Oct-12 03:33N 29°47' W 095°05'0 0.0
2017-Oct-12 03:16N 29°47' W 095°05'0 0.0
2017-Oct-12 02:55N 29°47' W 095°05'0 0.0
2017-Oct-12 02:25N 29°47' W 095°05'3 0.3
2017-Oct-11 17:16N 29°44' W 095°03'2 6.2
2017-Oct-11 17:00N 29°44' W 095°02'7 0.4
2017-Oct-11 00:00N 29°37' W 095°01'0 0.0
2017-Oct-10 23:30N 29°37' W 095°01'0 0.7
2017-Oct-10 23:00N 29°36' W 095°01'0 0.0
2017-Oct-10 22:30N 29°36' W 095°01'0 0.0
2017-Oct-10 21:54N 29°36' W 095°01'0 0.0
2017-Oct-10 21:29N 29°36' W 095°01'0 0.0
2017-Oct-10 21:00N 29°36' W 095°01'0 0.0
2017-Oct-10 20:30N 29°36' W 095°01'0 0.0
2017-Oct-10 20:00N 29°36' W 095°01'0 0.0
2017-Oct-10 19:28N 29°36' W 095°01'0 0.0
2017-Oct-10 18:59N 29°36' W 095°01'0 0.0
2017-Oct-10 18:29N 29°36' W 095°01'0 0.0
2017-Oct-10 18:00N 29°36' W 095°01'0 0.0
2017-Oct-10 17:30N 29°36' W 095°01'0 0.0
2017-Oct-10 17:00N 29°36' W 095°01'0 0.0
2017-Oct-10 16:30N 29°36' W 095°01'0 0.0
2017-Oct-10 15:59N 29°36' W 095°01'0 0.0
2017-Oct-10 15:30N 29°36' W 095°01'0 0.0
2017-Oct-10 15:00N 29°36' W 095°01'0 0.0
2017-Oct-10 14:00N 29°36' W 095°01'0 0.0
2017-Oct-10 13:30N 29°36' W 095°01'0 0.0
2017-Oct-10 13:00N 29°36' W 095°01'0 0.0
2017-Oct-10 12:30N 29°36' W 095°01'0 0.0
2017-Oct-10 12:00N 29°36' W 095°01'0 0.0
2017-Oct-10 11:30N 29°36' W 095°01'0 0.0
2017-Oct-10 11:00N 29°36' W 095°01'0 0.0
2017-Oct-10 10:30N 29°36' W 095°01'0 0.0
2017-Oct-10 10:00N 29°36' W 095°01'0 0.0
2017-Oct-10 09:30N 29°36' W 095°01'0 0.0
2017-Oct-10 09:00N 29°36' W 095°01'0 0.0
2017-Oct-10 08:30N 29°36' W 095°01'0 0.0
2017-Oct-10 08:00N 29°36' W 095°01'0 0.0
2017-Oct-10 07:30N 29°36' W 095°01'0 0.0
2017-Oct-10 07:00N 29°36' W 095°01'0 0.0
2017-Oct-10 06:30N 29°36' W 095°01'0 0.6
2017-Oct-10 06:00N 29°37' W 095°01'3 6.0
2017-Oct-10 05:30N 29°37' W 094°58'4 7.8
2017-Oct-10 05:00N 29°41' W 094°59'3 6.8
2017-Oct-10 04:30N 29°44' W 095°02'4 1.6
2017-Oct-10 01:46N 29°47' W 095°05'0 0.0
2017-Oct-09 23:26N 29°47' W 095°05'0 0.0
2017-Oct-09 22:22N 29°47' W 095°05'4 0.5
2017-Oct-09 12:45N 29°44' W 095°08'2 7.6
2017-Oct-09 12:29N 29°45' W 095°10'2 1.7
2017-Oct-09 11:17N 29°44' W 095°13'0 1.1
2017-Oct-09 10:58N 29°43' W 095°13'1 0.1
2017-Oct-09 04:33N 29°44' W 095°12'0 0.0
2017-Oct-09 04:25N 29°44' W 095°12'0 0.0
2017-Oct-09 03:46N 29°44' W 095°12'0 0.0
2017-Oct-09 03:30N 29°44' W 095°12'0 0.0
2017-Oct-09 03:00N 29°44' W 095°12'0 0.0
2017-Oct-09 02:30N 29°44' W 095°12'0 0.0
2017-Oct-09 01:30N 29°44' W 095°12'0 0.0
2017-Oct-08 23:56N 29°44' W 095°12'0 0.0
2017-Oct-08 23:28N 29°44' W 095°12'0 0.0
2017-Oct-08 22:59N 29°44' W 095°12'0 0.0
2017-Oct-08 22:26N 29°44' W 095°12'0 0.0
2017-Oct-08 22:00N 29°44' W 095°12'0 0.0
2017-Oct-08 21:30N 29°44' W 095°12'0 0.0
2017-Oct-08 20:53N 29°44' W 095°12'0 0.3
2017-Oct-08 20:23N 29°44' W 095°12'2 5.2
2017-Oct-08 20:00N 29°45' W 095°10'3 5.5
2017-Oct-08 19:29N 29°44' W 095°07'3 5.3
2017-Oct-08 19:00N 29°45' W 095°04'4 6.2
2017-Oct-08 18:23N 29°43' W 095°01'1 3.9
2017-Oct-08 18:00N 29°43' W 095°03'0 0.9
2017-Oct-08 17:28N 29°43' W 095°03'0 0.0
2017-Oct-08 16:53N 29°43' W 095°03'0 0.0
2017-Oct-08 16:30N 29°43' W 095°03'0 0.0
2017-Oct-08 16:00N 29°43' W 095°03'0 0.0
2017-Oct-08 15:29N 29°43' W 095°03'0 0.0
2017-Oct-08 14:57N 29°43' W 095°03'0 0.0
2017-Oct-08 14:30N 29°43' W 095°03'0 0.0
2017-Oct-08 13:59N 29°43' W 095°03'0 0.0
2017-Oct-08 13:29N 29°43' W 095°03'0 0.0
2017-Oct-08 12:55N 29°43' W 095°03'0 0.0
2017-Oct-08 06:49N 29°43' W 095°03'1 2.5
2017-Oct-08 06:30N 29°42' W 095°03'1 3.0
2017-Oct-08 06:00N 29°44' W 095°02'4 0.7
2017-Oct-08 00:29N 29°46' W 095°05'1 0.9
2017-Oct-07 23:22N 29°46' W 095°06'0 0.0
2017-Oct-07 08:25N 29°46' W 095°06'1 2.5
2017-Oct-07 08:00N 29°46' W 095°05'2 2.9
2017-Oct-07 07:27N 29°47' W 095°04'0 0.0
2017-Oct-07 07:00N 29°47' W 095°04'0 0.0
2017-Oct-07 06:06N 29°47' W 095°04'4 0.5
2017-Oct-06 22:44N 29°44' W 095°07'2 5.9
2017-Oct-06 22:26N 29°44' W 095°09'2 4.6
2017-Oct-06 21:59N 29°45' W 095°11'1 0.3
2017-Oct-06 18:26N 29°44' W 095°12'1 0.3
2017-Oct-06 15:43N 29°43' W 095°13'0 0.0
2017-Oct-06 15:29N 29°43' W 095°13'0 0.0
2017-Oct-06 15:00N 29°43' W 095°13'0 0.0
2017-Oct-06 14:30N 29°43' W 095°13'0 0.0
2017-Oct-06 13:59N 29°43' W 095°13'1 1.2
2017-Oct-06 13:23N 29°44' W 095°12'0 0.0
2017-Oct-06 11:26N 29°44' W 095°12'0 0.0
2017-Oct-06 11:00N 29°44' W 095°12'0 0.1
2017-Oct-06 10:30N 29°44' W 095°12'0 0.1
2017-Oct-06 09:58N 29°44' W 095°12'0 0.0
2017-Oct-06 05:34N 29°44' W 095°12'0 0.0
2017-Oct-06 05:25N 29°44' W 095°12'0 0.0
2017-Oct-06 03:57N 29°44' W 095°12'0 0.0
2017-Oct-06 03:05N 29°44' W 095°12'0 0.0
2017-Oct-06 02:46N 29°44' W 095°12'0 0.0
2017-Oct-06 02:16N 29°44' W 095°12'0 0.0
2017-Oct-06 02:00N 29°44' W 095°12'0 0.0
2017-Oct-06 01:20N 29°44' W 095°12'2 5.1
2017-Oct-06 00:56N 29°45' W 095°10'3 7.2
2017-Oct-06 00:29N 29°45' W 095°07'3 5.0
2017-Oct-05 23:59N 29°45' W 095°04'3 6.8
2017-Oct-05 23:30N 29°42' W 095°01'3 7.1
2017-Oct-05 23:00N 29°40' W 094°58'3 5.4
2017-Oct-05 22:30N 29°37' W 094°59'2 4.7
2017-Oct-05 22:00N 29°37' W 095°01'0 0.0
2017-Oct-05 21:30N 29°37' W 095°01'0 0.0
2017-Oct-05 21:00N 29°37' W 095°01'0 0.0
2017-Oct-05 20:30N 29°37' W 095°01'0 0.0
2017-Oct-05 20:00N 29°37' W 095°01'0 0.0
2017-Oct-05 19:30N 29°37' W 095°01'0 0.0
2017-Oct-05 19:00N 29°37' W 095°01'0 0.0
2017-Oct-05 18:30N 29°37' W 095°01'0 0.0
2017-Oct-05 18:00N 29°37' W 095°01'0 0.0
2017-Oct-05 17:30N 29°37' W 095°01'0 0.0
2017-Oct-05 17:00N 29°37' W 095°01'0 0.0
2017-Oct-05 15:30N 29°37' W 095°01'0 0.0
2017-Oct-05 15:00N 29°37' W 095°01'0 0.0
2017-Oct-05 14:30N 29°37' W 095°01'0 0.0
2017-Oct-05 14:00N 29°37' W 095°01'0 0.0
2017-Oct-05 13:30N 29°37' W 095°01'0 0.0
2017-Oct-05 13:00N 29°37' W 095°01'0 0.0
2017-Oct-05 12:30N 29°37' W 095°01'0 0.0
2017-Oct-05 12:00N 29°37' W 095°01'0 0.0
2017-Oct-05 11:30N 29°37' W 095°01'0 0.0
2017-Oct-05 11:00N 29°37' W 095°01'0 0.0
2017-Oct-05 10:30N 29°37' W 095°01'0 0.0
2017-Oct-05 10:00N 29°37' W 095°01'0 0.0
2017-Oct-05 09:30N 29°37' W 095°01'0 0.0
2017-Oct-05 09:00N 29°37' W 095°01'0 0.0
2017-Oct-05 08:30N 29°37' W 095°01'0 0.0
2017-Oct-05 08:00N 29°37' W 095°01'0 0.0
2017-Oct-05 07:30N 29°37' W 095°01'0 0.6
2017-Oct-05 07:00N 29°37' W 095°01'0 0.0
2017-Oct-05 06:30N 29°37' W 095°01'0 0.0
2017-Oct-05 06:00N 29°37' W 095°01'0 0.0
2017-Oct-05 05:30N 29°37' W 095°01'0 0.0
2017-Oct-05 05:00N 29°37' W 095°01'0 0.0
2017-Oct-05 04:30N 29°37' W 095°01'0 0.0
2017-Oct-05 04:00N 29°37' W 095°01'0 0.0
2017-Oct-05 03:30N 29°37' W 095°01'0 0.0
2017-Oct-05 03:00N 29°37' W 095°01'0 0.0
2017-Oct-05 02:30N 29°37' W 095°01'0 0.3
2017-Oct-05 02:00N 29°37' W 095°01'3 6.0
2017-Oct-05 01:30N 29°37' W 094°58'4 7.3
2017-Oct-05 01:00N 29°40' W 094°59'4 7.3
2017-Oct-05 00:28N 29°44' W 095°01'  
Track history (hours):
 
Tides and Currents Weather Stations Pressure Air Temp Water Temp Dewpoint Dewpoint Depression Visibility Wind Speed Wind Dir Waves Ship Positions

David F Stone

Owner: Blessey Enterprises, Inc., HARAHAN, LA. More information available from US FCC via Universal Licensing System and Coast Guard Vessel Documentation Center.

Last reported at 2017-Oct-14 23:56 UTC. Time now 2017-Oct-22 17:17 UTC.
Position N 29°32' W 094°54'.

Length 20 m.

Type: Ship. MMSI: 366935420.

Date/timePositionNaut miles runAvg speedWind from/ knotsBaromVisibWave heightAir tempDewpointWater temp
2017-Oct-14 23:56N 29°32' W 094°54'3 7.8
2017-Oct-14 23:30N 29°35' W 094°56'4 7.7
2017-Oct-14 23:00N 29°38' W 094°58'4 8.0
2017-Oct-14 22:30N 29°42' W 094°60'3 6.8
2017-Oct-14 22:00N 29°44' W 095°03'2 0.1
2017-Oct-14 05:44N 29°46' W 095°04'2 7.5
2017-Oct-14 05:30N 29°44' W 095°03'3 6.4
2017-Oct-14 05:00N 29°42' W 095°00'3 6.9
2017-Oct-14 04:30N 29°39' W 094°58'3 5.0
2017-Oct-14 04:00N 29°37' W 094°59'2 4.6
2017-Oct-14 03:30N 29°37' W 095°01'0 0.0
2017-Oct-14 03:00N 29°37' W 095°01'0 0.0
2017-Oct-14 02:30N 29°37' W 095°01'0 0.0
2017-Oct-14 02:00N 29°37' W 095°01'0 0.0
2017-Oct-14 01:28N 29°37' W 095°01'0 0.0
2017-Oct-14 00:52N 29°37' W 095°01'0 0.0
2017-Oct-14 00:30N 29°37' W 095°01'0 0.0
2017-Oct-13 23:56N 29°37' W 095°01'0 0.0
2017-Oct-13 23:28N 29°37' W 095°01'0 0.0
2017-Oct-13 23:00N 29°37' W 095°01'0 0.0
2017-Oct-13 22:30N 29°37' W 095°01'0 0.0
2017-Oct-13 22:00N 29°37' W 095°01'0 0.0
2017-Oct-13 21:30N 29°37' W 095°01'0 0.0
2017-Oct-13 21:00N 29°37' W 095°01'0 0.0
2017-Oct-13 20:30N 29°37' W 095°01'0 0.7
2017-Oct-13 20:00N 29°36' W 095°01'0 0.0
2017-Oct-13 19:30N 29°36' W 095°01'0 0.0
2017-Oct-13 19:00N 29°36' W 095°01'0 0.0
2017-Oct-13 18:30N 29°36' W 095°01'0 0.0
2017-Oct-13 18:00N 29°36' W 095°01'0 0.0
2017-Oct-13 17:30N 29°36' W 095°01'0 0.0
2017-Oct-13 17:00N 29°36' W 095°01'0 0.0
2017-Oct-13 16:30N 29°36' W 095°01'0 0.0
2017-Oct-13 16:00N 29°36' W 095°01'0 0.0
2017-Oct-13 15:30N 29°36' W 095°01'0 0.0
2017-Oct-13 15:00N 29°36' W 095°01'0 0.0
2017-Oct-13 14:29N 29°36' W 095°01'0 0.0
2017-Oct-13 14:00N 29°36' W 095°01'0 0.0
2017-Oct-13 13:30N 29°36' W 095°01'0 0.0
2017-Oct-13 13:00N 29°36' W 095°01'0 0.0
2017-Oct-13 12:30N 29°36' W 095°01'0 0.0
2017-Oct-13 12:00N 29°36' W 095°01'0 0.0
2017-Oct-13 11:30N 29°36' W 095°01'0 0.0
2017-Oct-13 11:00N 29°36' W 095°01'0 0.0
2017-Oct-13 10:30N 29°36' W 095°01'0 0.0
2017-Oct-13 10:00N 29°36' W 095°01'0 0.0
2017-Oct-13 09:30N 29°36' W 095°01'0 0.0
2017-Oct-13 09:00N 29°36' W 095°01'0 0.0
2017-Oct-13 08:30N 29°36' W 095°01'0 0.0
2017-Oct-13 08:00N 29°36' W 095°01'0 0.0
2017-Oct-13 07:30N 29°36' W 095°01'0 0.0
2017-Oct-13 07:00N 29°36' W 095°01'0 0.0
2017-Oct-13 06:30N 29°36' W 095°01'0 0.0
2017-Oct-13 06:00N 29°36' W 095°01'0 0.0
2017-Oct-13 05:30N 29°36' W 095°01'0 0.0
2017-Oct-13 05:00N 29°36' W 095°01'0 0.0
2017-Oct-13 04:30N 29°36' W 095°01'0 0.0
2017-Oct-13 04:00N 29°36' W 095°01'0 0.0
2017-Oct-13 03:30N 29°36' W 095°01'0 0.0
2017-Oct-13 03:00N 29°36' W 095°01'0 0.0
2017-Oct-13 02:30N 29°36' W 095°01'0 0.0
2017-Oct-13 02:00N 29°36' W 095°01'0 0.0
2017-Oct-13 01:30N 29°36' W 095°01'0 0.0
2017-Oct-13 01:00N 29°36' W 095°01'0 0.0
2017-Oct-13 00:30N 29°36' W 095°01'0 0.0
2017-Oct-13 00:00N 29°36' W 095°01'0 0.0
2017-Oct-12 23:30N 29°36' W 095°01'0 0.0
2017-Oct-12 23:00N 29°36' W 095°01'0 0.0
2017-Oct-12 22:30N 29°36' W 095°01'0 0.0
2017-Oct-12 22:00N 29°36' W 095°01'0 0.7
2017-Oct-12 21:30N 29°37' W 095°01'2 3.8
2017-Oct-12 21:00N 29°37' W 094°59'2 4.3
2017-Oct-12 20:30N 29°39' W 094°58'4 7.5
2017-Oct-12 20:00N 29°42' W 095°00'3 5.3
2017-Oct-12 19:28N 29°44' W 095°03'4 0.3
2017-Oct-12 04:39N 29°47' W 095°05'0 0.2
2017-Oct-12 04:28N 29°47' W 095°05'0 0.2
2017-Oct-12 03:33N 29°47' W 095°05'0 0.0
2017-Oct-12 03:16N 29°47' W 095°05'0 0.0
2017-Oct-12 02:55N 29°47' W 095°05'0 0.0
2017-Oct-12 02:25N 29°47' W 095°05'3 0.3
2017-Oct-11 17:16N 29°44' W 095°03'2 6.2
2017-Oct-11 17:00N 29°44' W 095°02'7 0.4
2017-Oct-11 00:00N 29°37' W 095°01'0 0.0
2017-Oct-10 23:30N 29°37' W 095°01'0 0.7
2017-Oct-10 23:00N 29°36' W 095°01'0 0.0
2017-Oct-10 22:30N 29°36' W 095°01'0 0.0
2017-Oct-10 21:54N 29°36' W 095°01'0 0.0
2017-Oct-10 21:29N 29°36' W 095°01'0 0.0
2017-Oct-10 21:00N 29°36' W 095°01'0 0.0
2017-Oct-10 20:30N 29°36' W 095°01'0 0.0
2017-Oct-10 20:00N 29°36' W 095°01'0 0.0
2017-Oct-10 19:28N 29°36' W 095°01'0 0.0
2017-Oct-10 18:59N 29°36' W 095°01'0 0.0
2017-Oct-10 18:29N 29°36' W 095°01'0 0.0
2017-Oct-10 18:00N 29°36' W 095°01'0 0.0
2017-Oct-10 17:30N 29°36' W 095°01'0 0.0
2017-Oct-10 17:00N 29°36' W 095°01'0 0.0
2017-Oct-10 16:30N 29°36' W 095°01'0 0.0
2017-Oct-10 15:59N 29°36' W 095°01'0 0.0
2017-Oct-10 15:30N 29°36' W 095°01'0 0.0
2017-Oct-10 15:00N 29°36' W 095°01'0 0.0
2017-Oct-10 14:00N 29°36' W 095°01'0 0.0
2017-Oct-10 13:30N 29°36' W 095°01'0 0.0
2017-Oct-10 13:00N 29°36' W 095°01'0 0.0
2017-Oct-10 12:30N 29°36' W 095°01'0 0.0
2017-Oct-10 12:00N 29°36' W 095°01'0 0.0
2017-Oct-10 11:30N 29°36' W 095°01'0 0.0
2017-Oct-10 11:00N 29°36' W 095°01'0 0.0
2017-Oct-10 10:30N 29°36' W 095°01'0 0.0
2017-Oct-10 10:00N 29°36' W 095°01'0 0.0
2017-Oct-10 09:30N 29°36' W 095°01'0 0.0
2017-Oct-10 09:00N 29°36' W 095°01'0 0.0
2017-Oct-10 08:30N 29°36' W 095°01'0 0.0
2017-Oct-10 08:00N 29°36' W 095°01'0 0.0
2017-Oct-10 07:30N 29°36' W 095°01'0 0.0
2017-Oct-10 07:00N 29°36' W 095°01'0 0.0
2017-Oct-10 06:30N 29°36' W 095°01'0 0.6
2017-Oct-10 06:00N 29°37' W 095°01'3 6.0
2017-Oct-10 05:30N 29°37' W 094°58'4 7.8
2017-Oct-10 05:00N 29°41' W 094°59'3 6.8
2017-Oct-10 04:30N 29°44' W 095°02'4 1.6
2017-Oct-10 01:46N 29°47' W 095°05'0 0.0
2017-Oct-09 23:26N 29°47' W 095°05'0 0.0
2017-Oct-09 22:22N 29°47' W 095°05'4 0.5
2017-Oct-09 12:45N 29°44' W 095°08'2 7.6
2017-Oct-09 12:29N 29°45' W 095°10'2 1.7
2017-Oct-09 11:17N 29°44' W 095°13'0 1.1
2017-Oct-09 10:58N 29°43' W 095°13'1 0.1
2017-Oct-09 04:33N 29°44' W 095°12'0 0.0
2017-Oct-09 04:25N 29°44' W 095°12'0 0.0
2017-Oct-09 03:46N 29°44' W 095°12'0 0.0
2017-Oct-09 03:30N 29°44' W 095°12'0 0.0
2017-Oct-09 03:00N 29°44' W 095°12'0 0.0
2017-Oct-09 02:30N 29°44' W 095°12'0 0.0
2017-Oct-09 01:30N 29°44' W 095°12'0 0.0
2017-Oct-08 23:56N 29°44' W 095°12'0 0.0
2017-Oct-08 23:28N 29°44' W 095°12'0 0.0
2017-Oct-08 22:59N 29°44' W 095°12'0 0.0
2017-Oct-08 22:26N 29°44' W 095°12'0 0.0
2017-Oct-08 22:00N 29°44' W 095°12'0 0.0
2017-Oct-08 21:30N 29°44' W 095°12'0 0.0
2017-Oct-08 20:53N 29°44' W 095°12'0 0.3
2017-Oct-08 20:23N 29°44' W 095°12'2 5.2
2017-Oct-08 20:00N 29°45' W 095°10'3 5.5
2017-Oct-08 19:29N 29°44' W 095°07'3 5.3
2017-Oct-08 19:00N 29°45' W 095°04'4 6.2
2017-Oct-08 18:23N 29°43' W 095°01'1 3.9
2017-Oct-08 18:00N 29°43' W 095°03'0 0.9
2017-Oct-08 17:28N 29°43' W 095°03'0 0.0
2017-Oct-08 16:53N 29°43' W 095°03'0 0.0
2017-Oct-08 16:30N 29°43' W 095°03'0 0.0
2017-Oct-08 16:00N 29°43' W 095°03'0 0.0
2017-Oct-08 15:29N 29°43' W 095°03'0 0.0
2017-Oct-08 14:57N 29°43' W 095°03'0 0.0
2017-Oct-08 14:30N 29°43' W 095°03'0 0.0
2017-Oct-08 13:59N 29°43' W 095°03'0 0.0
2017-Oct-08 13:29N 29°43' W 095°03'0 0.0
2017-Oct-08 12:55N 29°43' W 095°03'0 0.0
2017-Oct-08 06:49N 29°43' W 095°03'1 2.5
2017-Oct-08 06:30N 29°42' W 095°03'1 3.0
2017-Oct-08 06:00N 29°44' W 095°02'4 0.7
2017-Oct-08 00:29N 29°46' W 095°05'1 0.9
2017-Oct-07 23:22N 29°46' W 095°06'0 0.0
2017-Oct-07 08:25N 29°46' W 095°06'1 2.5
2017-Oct-07 08:00N 29°46' W 095°05'2 2.9
2017-Oct-07 07:27N 29°47' W 095°04'0 0.0
2017-Oct-07 07:00N 29°47' W 095°04'0 0.0
2017-Oct-07 06:06N 29°47' W 095°04'4 0.5
2017-Oct-06 22:44N 29°44' W 095°07'2 5.9
2017-Oct-06 22:26N 29°44' W 095°09'2 4.6
2017-Oct-06 21:59N 29°45' W 095°11'1 0.3
2017-Oct-06 18:26N 29°44' W 095°12'1 0.3
2017-Oct-06 15:43N 29°43' W 095°13'0 0.0
2017-Oct-06 15:29N 29°43' W 095°13'0 0.0
2017-Oct-06 15:00N 29°43' W 095°13'0 0.0
2017-Oct-06 14:30N 29°43' W 095°13'0 0.0
2017-Oct-06 13:59N 29°43' W 095°13'1 1.2
2017-Oct-06 13:23N 29°44' W 095°12'0 0.0
2017-Oct-06 11:26N 29°44' W 095°12'0 0.0
2017-Oct-06 11:00N 29°44' W 095°12'0 0.1
2017-Oct-06 10:30N 29°44' W 095°12'0 0.1
2017-Oct-06 09:58N 29°44' W 095°12'0 0.0
2017-Oct-06 05:34N 29°44' W 095°12'0 0.0
2017-Oct-06 05:25N 29°44' W 095°12'0 0.0
2017-Oct-06 03:57N 29°44' W 095°12'0 0.0
2017-Oct-06 03:05N 29°44' W 095°12'0 0.0
2017-Oct-06 02:46N 29°44' W 095°12'0 0.0
2017-Oct-06 02:16N 29°44' W 095°12'0 0.0
2017-Oct-06 02:00N 29°44' W 095°12'0 0.0
2017-Oct-06 01:20N 29°44' W 095°12'2 5.1
2017-Oct-06 00:56N 29°45' W 095°10'3 7.2
2017-Oct-06 00:29N 29°45' W 095°07'3 5.0
2017-Oct-05 23:59N 29°45' W 095°04'3 6.8
2017-Oct-05 23:30N 29°42' W 095°01'3 7.1
2017-Oct-05 23:00N 29°40' W 094°58'3 5.4
2017-Oct-05 22:30N 29°37' W 094°59'2 4.7
2017-Oct-05 22:00N 29°37' W 095°01'0 0.0
2017-Oct-05 21:30N 29°37' W 095°01'0 0.0
2017-Oct-05 21:00N 29°37' W 095°01'0 0.0
2017-Oct-05 20:30N 29°37' W 095°01'0 0.0
2017-Oct-05 20:00N 29°37' W 095°01'0 0.0
2017-Oct-05 19:30N 29°37' W 095°01'0 0.0
2017-Oct-05 19:00N 29°37' W 095°01'0 0.0
2017-Oct-05 18:30N 29°37' W 095°01'0 0.0
2017-Oct-05 18:00N 29°37' W 095°01'0 0.0
2017-Oct-05 17:30N 29°37' W 095°01'0 0.0
2017-Oct-05 17:00N 29°37' W 095°01'0 0.0
2017-Oct-05 15:30N 29°37' W 095°01'0 0.0
2017-Oct-05 15:00N 29°37' W 095°01'0 0.0
2017-Oct-05 14:30N 29°37' W 095°01'0 0.0
2017-Oct-05 14:00N 29°37' W 095°01'0 0.0
2017-Oct-05 13:30N 29°37' W 095°01'0 0.0
2017-Oct-05 13:00N 29°37' W 095°01'0 0.0
2017-Oct-05 12:30N 29°37' W 095°01'0 0.0
2017-Oct-05 12:00N 29°37' W 095°01'0 0.0
2017-Oct-05 11:30N 29°37' W 095°01'0 0.0
2017-Oct-05 11:00N 29°37' W 095°01'0 0.0
2017-Oct-05 10:30N 29°37' W 095°01'0 0.0
2017-Oct-05 10:00N 29°37' W 095°01'0 0.0
2017-Oct-05 09:30N 29°37' W 095°01'0 0.0
2017-Oct-05 09:00N 29°37' W 095°01'0 0.0
2017-Oct-05 08:30N 29°37' W 095°01'0 0.0
2017-Oct-05 08:00N 29°37' W 095°01'0 0.0
2017-Oct-05 07:30N 29°37' W 095°01'0 0.6
2017-Oct-05 07:00N 29°37' W 095°01'0 0.0
2017-Oct-05 06:30N 29°37' W 095°01'0 0.0
2017-Oct-05 06:00N 29°37' W 095°01'0 0.0
2017-Oct-05 05:30N 29°37' W 095°01'0 0.0
2017-Oct-05 05:00N 29°37' W 095°01'0 0.0
2017-Oct-05 04:30N 29°37' W 095°01'0 0.0
2017-Oct-05 04:00N 29°37' W 095°01'0 0.0
2017-Oct-05 03:30N 29°37' W 095°01'0 0.0
2017-Oct-05 03:00N 29°37' W 095°01'0 0.0
2017-Oct-05 02:30N 29°37' W 095°01'0 0.3
2017-Oct-05 02:00N 29°37' W 095°01'3 6.0
2017-Oct-05 01:30N 29°37' W 094°58'4 7.3
2017-Oct-05 01:00N 29°40' W 094°59'4 7.3
2017-Oct-05 00:28N 29°44' W 095°01'  

Dump ship's entire track history